Tylertown, MS

9:48 PM CDT on October 01, 2014 (GMT -0500)
Hammond Municipal | Change Station
CLOSE
Current Station
Airport
Location: Hammond,
Elevation: 43 ft
Nearby Weather Stations

Elev 43 ft 30.52 °N, 90.42 °W | Updated 13 minutes ago

Partly Cloudy
Partly Cloudy
77 °F
Feels Like 77 °F
N
5
Wind Variable Wind from ESE

Today
High -- | Low -- °F
--% Chance of Precip.
Yesterday
High -- | Low -- °F
Precip. -- in
6:54 AM 6:45 PM
First Quarter, 53% visible
Pressure 29.95 in
Visibility 10.0 miles
Clouds Scattered Clouds 1600 ft
Dew Point 73 °F
Humidity 89%
Rainfall 0.00 in
Snow Depth Not available.
UV 0 out of 12
Pollen 7.20 out of 12
Air Quality Not available.
Flu Activity Not available.
METAR KHDC 020235Z AUTO 11004KT 10SM SCT016 25/23 A2995 RMK AO2

More Conditions Fewer Conditions

Pressure 29.95 in
Visibility 10.0 miles
Clouds Scattered Clouds 1600 ft
Dew Point 73 °F
Humidity 89%
Rainfall 0.00 in
Snow Depth Not available.
UV 0 out of 12
Pollen 7.20 out of 12
Air Quality Not available.
Flu Activity Not available.
METAR KHDC 020235Z AUTO 11004KT 10SM SCT016 25/23 A2995 RMK AO2

More Conditions Fewer Conditions

10-Day Weather Forecast

Almanac

Astronomy

Oct. 01, 2014 Rise Set
Actual Time 6:54 AM CDT 6:45 PM CDT
Civil Twilight 6:30 AM CDT 7:09 PM CDT
Nautical Twilight 6:01 AM CDT 7:37 PM CDT
Astronomical Twilight 5:33 AM CDT 8:05 PM CDT
Moon 1:39 PM CDT (10/1) No Moon Set
Length of Visible Light 12h 39m
Length of Day
11h 51m
Tomorrow will be 1m 52s shorter.
First Quarter, 53% of the Moon is Illuminated
Today
First Quarter
Oct 8
Full
Oct 15
Last Quarter
Oct 23
New
Oct 30
First Quarter

Today's Extremes

State Highs State Lows

Community

WunderPhotos

Upload Photos

1,758,154 photos uploaded!

WunderBlogs® & News

Nearby

Snow Depth

Station Depth Elevation
No new snow has been reported.

Earthquake Activity

City Distance Mag. Time & Date
No recent earthquake activity has been reported nearby.
Minimum magnitude displayed is 2.5.

Coastal Water Temperatures

Place Temperature
No Stations Reporting

Nearby Weather Stations